Atlantic Beach, FL (32233)

10:53 AM EST on February 06, 2016 (GMT -0500)
Reed Island | | Change Station
CLOSE
Current Station
Personal Weather Station
Location: Jacksonville, FL
Elevation: 10 ft
Nearby Weather Stations

Elev 10 ft 30.39 °N, 81.52 °W | Updated 13 seconds ago

Scattered Clouds
Scattered Clouds
53.8 °F
Feels Like 53.8 °F
N
16.1
Wind Variable Wind from ENE
Gusts 19.0 mph

Today
High -- | Low -- °F
--% Chance of Precip.
Yesterday
High -- | Low -- °F
Precip. -- in
Pressure 30.30 in
Visibility 10.0 miles
Clouds Scattered Clouds 2900 ft
Scattered Clouds 3700 ft
Dew Point 45 °F
Humidity 71%
Rainfall 0.00 in
Snow Depth Not available.
7:13 AM 6:06 PM
Waning Crescent, 5% visible
SPECI KCRG 061521Z 05016G23KT 10SM SCT029 SCT037 13/07 A3030 RMK AO2 T01280072
Pressure 30.30 in
Visibility 10.0 miles
Clouds Scattered Clouds 2900 ft
Scattered Clouds 3700 ft
Dew Point 45 °F
Humidity 71%
Rainfall 0.00 in
Snow Depth Not available.
7:13 AM 6:06 PM
Waning Crescent, 5% visible
SPECI KCRG 061521Z 05016G23KT 10SM SCT029 SCT037 13/07 A3030 RMK AO2 T01280072

10-Day Weather Forecast

Almanac

Astronomy

Feb. 06, 2016 Rise Set
Actual Time
Civil Twilight
Nautical Twilight
Astronomical Twilight
Moon
Length of Visible Light
Length of Day
Tomorrow will be .
, % of the Moon is Illuminated

Today's Extremes

State Highs State Lows

Community

WunderPhotos

Upload Photos

1,890,987 photos uploaded!

WunderBlog® & News

Nearby

Air Quality

  Air Quality AQ Index Pollutant
Not available.

Snow Depth

Station Depth Elevation

Earthquake Activity

City Distance Mag. Time & Date
Minimum magnitude displayed is 2.5.

Coastal Water Temperatures

Place Temperature

Stations

Nearby Weather Stations

Station Location Temp. Windchill Dew Point Humidity Wind Precip. Elev Updated Type
                   

Watches & Warnings

There are currently no watches in effect.